Altus Air Force Base
KLTS : now visible

Airfield :











YOU CAN JOIN US ON...

 
LOGIN :

Register | Disclaimer

   EN    FR    IT 

 









Legend :    VFR   Marginal VFR   IFR   Intensive IFR   Very Intensive IFR
Visi :
Ceiling :
>= 8 km
>= 3000ft
5 to 8 km
1000 to 3000 ft
1500m to 5 km
500 to 1000 ft
800 to 1500m
200 to 500 ft
< 800m
< 200 ft
Symbols :   Thunderstorms  Fog  Heavy snow  Heavy precipitations  Wind > 20 kt






- Airport Elevation : 1382 ft


KLTS - Altus Air Force Base

CURRENT METAR :
  • 042256Z AUTO 24003KT 10SM CLR 14/M07 A3017 RMK AO2 SLP221 T01351067 $

EXPIRED METARs :
  • 042156Z AUTO 30003KT 10SM CLR 15/M07 A3017 RMK AO2 SLP222 T01461075 $
  • 042056Z AUTO 27007KT 10SM CLR 14/M06 A3017 RMK AO2 SLP222 T01441065 57019 $

TAF TAF KLTS
Valid from the 04 at 17:00 until the 05 at 23:00 UTC


041702Z 0417/0523 VRB06KT 9999 SKC QNH3014INS
BECMG 0517/0518 36009KT 9999 FEW180 QNH3018INS TX12/0421Z TNM01/0513Z
KZFW FIR / North America



MET'MAP, your aeronautical weather chart ! - Copyright ORBIFLY December 2007 - Disclaimer

ORBIFLY MET'MAP TEAM :

Programming & Development : Alexandra Zaïnal
Concept & original design : Baudouin d'Aumeries
Assistance for programming : Marc-Olivier Méhu
Technical & hardware support : Manuel Goepfert

Contact : metmap@orbifly.com




SOURCES & CREDITS :

   NOAA       Earth
Advisory